sensor_id;sensor_type;location;lat;lon;timestamp;P1;durP1;ratioP1;P2;durP2;ratioP2
25349;SDS011;13302;48.796;11.978;2024-03-22T00:00:57;8.83;;;7.97;;
25349;SDS011;13302;48.796;11.978;2024-03-22T00:03:43;8.13;;;7.43;;
25349;SDS011;13302;48.796;11.978;2024-03-22T00:06:29;8.37;;;7.67;;
25349;SDS011;13302;48.796;11.978;2024-03-22T00:09:15;8.23;;;7.53;;
25349;SDS011;13302;48.796;11.978;2024-03-22T00:12:02;8.27;;;7.47;;
25349;SDS011;13302;48.796;11.978;2024-03-22T00:14:48;7.87;;;7.17;;
25349;SDS011;13302;48.796;11.978;2024-03-22T00:17:36;7.00;;;6.50;;
25349;SDS011;13302;48.796;11.978;2024-03-22T00:20:23;7.07;;;6.47;;
25349;SDS011;13302;48.796;11.978;2024-03-22T00:23:09;6.70;;;6.20;;
25349;SDS011;13302;48.796;11.978;2024-03-22T00:25:55;6.33;;;5.83;;
25349;SDS011;13302;48.796;11.978;2024-03-22T00:28:41;7.13;;;6.53;;
25349;SDS011;13302;48.796;11.978;2024-03-22T00:31:27;6.90;;;6.30;;
25349;SDS011;13302;48.796;11.978;2024-03-22T00:34:13;6.73;;;6.23;;
25349;SDS011;13302;48.796;11.978;2024-03-22T00:36:59;6.13;;;5.63;;
25349;SDS011;13302;48.796;11.978;2024-03-22T00:39:45;7.30;;;6.63;;
25349;SDS011;13302;48.796;11.978;2024-03-22T00:42:31;7.97;;;7.37;;
25349;SDS011;13302;48.796;11.978;2024-03-22T00:45:17;6.83;;;6.23;;
25349;SDS011;13302;48.796;11.978;2024-03-22T00:48:04;7.60;;;6.90;;
25349;SDS011;13302;48.796;11.978;2024-03-22T00:50:50;7.20;;;6.60;;
25349;SDS011;13302;48.796;11.978;2024-03-22T00:53:36;7.27;;;6.67;;
25349;SDS011;13302;48.796;11.978;2024-03-22T00:56:22;6.47;;;5.97;;
25349;SDS011;13302;48.796;11.978;2024-03-22T00:59:08;7.10;;;6.50;;
25349;SDS011;13302;48.796;11.978;2024-03-22T01:01:54;7.13;;;6.53;;
25349;SDS011;13302;48.796;11.978;2024-03-22T01:04:40;6.73;;;6.23;;
25349;SDS011;13302;48.796;11.978;2024-03-22T01:07:26;7.37;;;6.77;;
25349;SDS011;13302;48.796;11.978;2024-03-22T01:10:12;8.03;;;7.23;;
25349;SDS011;13302;48.796;11.978;2024-03-22T01:12:59;9.80;;;8.90;;
25349;SDS011;13302;48.796;11.978;2024-03-22T01:15:46;11.57;;;10.37;;
25349;SDS011;13302;48.796;11.978;2024-03-22T01:18:32;11.33;;;10.13;;
25349;SDS011;13302;48.796;11.978;2024-03-22T01:21:18;11.50;;;10.40;;
25349;SDS011;13302;48.796;11.978;2024-03-22T01:24:04;11.00;;;9.90;;
25349;SDS011;13302;48.796;11.978;2024-03-22T01:26:50;11.77;;;10.57;;
25349;SDS011;13302;48.796;11.978;2024-03-22T01:29:36;11.90;;;10.37;;
25349;SDS011;13302;48.796;11.978;2024-03-22T01:32:22;10.57;;;9.47;;
25349;SDS011;13302;48.796;11.978;2024-03-22T01:35:08;10.33;;;9.33;;
25349;SDS011;13302;48.796;11.978;2024-03-22T01:37:54;10.60;;;9.53;;
25349;SDS011;13302;48.796;11.978;2024-03-22T01:40:40;11.27;;;10.17;;
25349;SDS011;13302;48.796;11.978;2024-03-22T01:43:27;11.30;;;10.20;;
25349;SDS011;13302;48.796;11.978;2024-03-22T01:46:13;11.67;;;10.57;;
25349;SDS011;13302;48.796;11.978;2024-03-22T01:48:59;11.67;;;10.63;;
25349;SDS011;13302;48.796;11.978;2024-03-22T01:51:45;11.47;;;10.37;;
25349;SDS011;13302;48.796;11.978;2024-03-22T01:54:32;11.80;;;10.60;;
25349;SDS011;13302;48.796;11.978;2024-03-22T01:57:18;9.10;;;8.20;;
25349;SDS011;13302;48.796;11.978;2024-03-22T02:00:04;9.23;;;8.40;;
25349;SDS011;13302;48.796;11.978;2024-03-22T02:02:59;8.40;;;7.63;;
25349;SDS011;13302;48.796;11.978;2024-03-22T02:05:45;7.77;;;7.10;;
25349;SDS011;13302;48.796;11.978;2024-03-22T02:08:31;7.63;;;6.93;;
25349;SDS011;13302;48.796;11.978;2024-03-22T02:11:17;8.23;;;7.43;;
25349;SDS011;13302;48.796;11.978;2024-03-22T02:14:04;6.90;;;6.30;;
25349;SDS011;13302;48.796;11.978;2024-03-22T02:16:50;7.87;;;7.17;;
25349;SDS011;13302;48.796;11.978;2024-03-22T02:19:36;8.10;;;7.17;;
25349;SDS011;13302;48.796;11.978;2024-03-22T02:22:22;8.33;;;7.33;;
25349;SDS011;13302;48.796;11.978;2024-03-22T02:25:08;9.03;;;6.87;;
25349;SDS011;13302;48.796;11.978;2024-03-22T02:27:54;7.37;;;6.67;;
25349;SDS011;13302;48.796;11.978;2024-03-22T02:30:41;8.30;;;7.50;;
25349;SDS011;13302;48.796;11.978;2024-03-22T02:33:27;7.90;;;7.20;;
25349;SDS011;13302;48.796;11.978;2024-03-22T02:36:13;7.30;;;6.70;;
25349;SDS011;13302;48.796;11.978;2024-03-22T02:38:59;7.53;;;6.83;;
25349;SDS011;13302;48.796;11.978;2024-03-22T02:41:45;7.53;;;6.93;;
25349;SDS011;13302;48.796;11.978;2024-03-22T02:44:31;7.77;;;6.67;;
25349;SDS011;13302;48.796;11.978;2024-03-22T02:47:17;7.00;;;6.30;;
25349;SDS011;13302;48.796;11.978;2024-03-22T02:50:03;6.40;;;5.90;;
25349;SDS011;13302;48.796;11.978;2024-03-22T02:52:49;7.23;;;6.63;;
25349;SDS011;13302;48.796;11.978;2024-03-22T02:55:39;7.43;;;6.83;;
25349;SDS011;13302;48.796;11.978;2024-03-22T02:58:26;7.30;;;6.60;;
25349;SDS011;13302;48.796;11.978;2024-03-22T03:01:12;6.60;;;6.10;;
25349;SDS011;13302;48.796;11.978;2024-03-22T03:03:58;5.33;;;4.97;;
25349;SDS011;13302;48.796;11.978;2024-03-22T03:06:44;6.33;;;5.73;;
25349;SDS011;13302;48.796;11.978;2024-03-22T03:09:31;7.03;;;6.43;;
25349;SDS011;13302;48.796;11.978;2024-03-22T03:12:17;6.57;;;5.97;;
25349;SDS011;13302;48.796;11.978;2024-03-22T03:15:03;6.03;;;5.53;;
25349;SDS011;13302;48.796;11.978;2024-03-22T03:17:49;6.50;;;5.93;;
25349;SDS011;13302;48.796;11.978;2024-03-22T03:20:37;6.30;;;5.80;;
25349;SDS011;13302;48.796;11.978;2024-03-22T03:23:23;5.43;;;5.03;;
25349;SDS011;13302;48.796;11.978;2024-03-22T03:26:09;5.43;;;5.03;;
25349;SDS011;13302;48.796;11.978;2024-03-22T03:28:55;5.17;;;4.67;;
25349;SDS011;13302;48.796;11.978;2024-03-22T03:31:42;6.17;;;5.57;;
25349;SDS011;13302;48.796;11.978;2024-03-22T03:34:28;7.17;;;6.13;;
25349;SDS011;13302;48.796;11.978;2024-03-22T03:37:14;7.73;;;6.33;;
25349;SDS011;13302;48.796;11.978;2024-03-22T03:40:00;6.30;;;5.70;;
25349;SDS011;13302;48.796;11.978;2024-03-22T03:42:46;6.57;;;5.93;;
25349;SDS011;13302;48.796;11.978;2024-03-22T03:45:32;6.10;;;5.60;;
25349;SDS011;13302;48.796;11.978;2024-03-22T03:48:21;5.53;;;5.03;;
25349;SDS011;13302;48.796;11.978;2024-03-22T03:51:07;6.40;;;5.80;;
25349;SDS011;13302;48.796;11.978;2024-03-22T03:53:53;5.87;;;5.47;;
25349;SDS011;13302;48.796;11.978;2024-03-22T03:56:39;6.17;;;5.67;;
25349;SDS011;13302;48.796;11.978;2024-03-22T03:59:25;5.77;;;5.27;;
25349;SDS011;13302;48.796;11.978;2024-03-22T04:02:11;6.23;;;5.63;;
25349;SDS011;13302;48.796;11.978;2024-03-22T04:04:57;6.60;;;6.00;;
25349;SDS011;13302;48.796;11.978;2024-03-22T04:07:46;6.77;;;6.10;;
25349;SDS011;13302;48.796;11.978;2024-03-22T04:10:33;6.33;;;5.83;;
25349;SDS011;13302;48.796;11.978;2024-03-22T04:13:19;5.70;;;5.30;;
25349;SDS011;13302;48.796;11.978;2024-03-22T04:16:05;6.03;;;5.53;;
25349;SDS011;13302;48.796;11.978;2024-03-22T04:18:51;6.93;;;6.33;;
25349;SDS011;13302;48.796;11.978;2024-03-22T04:21:37;6.00;;;5.60;;
25349;SDS011;13302;48.796;11.978;2024-03-22T04:24:23;6.17;;;5.57;;
25349;SDS011;13302;48.796;11.978;2024-03-22T04:27:09;5.57;;;5.07;;
25349;SDS011;13302;48.796;11.978;2024-03-22T04:29:56;6.67;;;6.07;;
25349;SDS011;13302;48.796;11.978;2024-03-22T04:32:42;6.30;;;5.80;;
25349;SDS011;13302;48.796;11.978;2024-03-22T04:35:28;6.17;;;5.67;;
25349;SDS011;13302;48.796;11.978;2024-03-22T04:38:14;5.73;;;5.23;;
25349;SDS011;13302;48.796;11.978;2024-03-22T04:41:00;5.17;;;4.80;;
25349;SDS011;13302;48.796;11.978;2024-03-22T04:43:47;6.40;;;5.90;;
25349;SDS011;13302;48.796;11.978;2024-03-22T04:46:33;6.87;;;6.37;;
25349;SDS011;13302;48.796;11.978;2024-03-22T04:49:19;5.77;;;5.27;;
25349;SDS011;13302;48.796;11.978;2024-03-22T04:52:05;6.47;;;5.97;;
25349;SDS011;13302;48.796;11.978;2024-03-22T04:54:51;6.07;;;5.60;;
25349;SDS011;13302;48.796;11.978;2024-03-22T04:57:37;5.47;;;5.07;;
25349;SDS011;13302;48.796;11.978;2024-03-22T05:00:23;6.37;;;5.77;;
25349;SDS011;13302;48.796;11.978;2024-03-22T05:03:11;6.77;;;6.20;;
25349;SDS011;13302;48.796;11.978;2024-03-22T05:05:57;6.37;;;5.87;;
25349;SDS011;13302;48.796;11.978;2024-03-22T05:08:44;5.30;;;4.90;;
25349;SDS011;13302;48.796;11.978;2024-03-22T05:11:30;5.07;;;4.67;;
25349;SDS011;13302;48.796;11.978;2024-03-22T05:14:18;5.80;;;5.30;;
25349;SDS011;13302;48.796;11.978;2024-03-22T05:17:05;5.23;;;4.83;;
25349;SDS011;13302;48.796;11.978;2024-03-22T05:19:51;5.23;;;4.83;;
25349;SDS011;13302;48.796;11.978;2024-03-22T05:22:38;7.27;;;6.57;;
25349;SDS011;13302;48.796;11.978;2024-03-22T05:25:24;6.03;;;5.53;;
25349;SDS011;13302;48.796;11.978;2024-03-22T05:28:11;5.57;;;5.13;;
25349;SDS011;13302;48.796;11.978;2024-03-22T05:30:57;5.23;;;4.83;;
25349;SDS011;13302;48.796;11.978;2024-03-22T05:33:43;6.10;;;5.60;;
25349;SDS011;13302;48.796;11.978;2024-03-22T05:36:29;6.70;;;6.17;;
25349;SDS011;13302;48.796;11.978;2024-03-22T05:39:15;6.03;;;5.53;;
25349;SDS011;13302;48.796;11.978;2024-03-22T05:42:02;5.40;;;5.00;;
25349;SDS011;13302;48.796;11.978;2024-03-22T05:44:48;6.00;;;5.50;;
25349;SDS011;13302;48.796;11.978;2024-03-22T05:47:34;6.50;;;5.90;;
25349;SDS011;13302;48.796;11.978;2024-03-22T05:50:20;6.20;;;5.70;;
25349;SDS011;13302;48.796;11.978;2024-03-22T05:53:06;6.33;;;5.83;;
25349;SDS011;13302;48.796;11.978;2024-03-22T05:55:52;5.50;;;5.10;;
25349;SDS011;13302;48.796;11.978;2024-03-22T05:58:38;5.67;;;5.27;;
25349;SDS011;13302;48.796;11.978;2024-03-22T06:01:24;5.13;;;4.63;;
25349;SDS011;13302;48.796;11.978;2024-03-22T06:04:10;5.53;;;5.03;;
25349;SDS011;13302;48.796;11.978;2024-03-22T06:06:57;7.60;;;6.93;;
25349;SDS011;13302;48.796;11.978;2024-03-22T06:09:45;8.07;;;7.27;;
25349;SDS011;13302;48.796;11.978;2024-03-22T06:12:32;8.97;;;8.13;;
25349;SDS011;13302;48.796;11.978;2024-03-22T06:15:18;8.97;;;8.07;;
25349;SDS011;13302;48.796;11.978;2024-03-22T06:18:04;7.67;;;6.97;;
25349;SDS011;13302;48.796;11.978;2024-03-22T06:20:50;9.13;;;7.80;;
25349;SDS011;13302;48.796;11.978;2024-03-22T06:23:36;11.20;;;10.10;;
25349;SDS011;13302;48.796;11.978;2024-03-22T06:26:22;12.20;;;10.93;;
25349;SDS011;13302;48.796;11.978;2024-03-22T06:29:09;13.00;;;11.03;;
25349;SDS011;13302;48.796;11.978;2024-03-22T06:31:55;11.57;;;10.47;;
25349;SDS011;13302;48.796;11.978;2024-03-22T06:34:41;11.67;;;10.50;;
25349;SDS011;13302;48.796;11.978;2024-03-22T06:37:27;11.27;;;9.93;;
25349;SDS011;13302;48.796;11.978;2024-03-22T06:40:13;11.23;;;10.17;;
25349;SDS011;13302;48.796;11.978;2024-03-22T06:42:59;12.07;;;10.87;;
25349;SDS011;13302;48.796;11.978;2024-03-22T06:45:45;11.23;;;10.13;;
25349;SDS011;13302;48.796;11.978;2024-03-22T06:48:31;11.57;;;10.47;;
25349;SDS011;13302;48.796;11.978;2024-03-22T06:51:17;10.60;;;9.57;;
25349;SDS011;13302;48.796;11.978;2024-03-22T06:54:04;9.90;;;8.90;;
25349;SDS011;13302;48.796;11.978;2024-03-22T06:56:50;9.20;;;8.40;;
25349;SDS011;13302;48.796;11.978;2024-03-22T06:59:36;9.47;;;8.57;;
25349;SDS011;13302;48.796;11.978;2024-03-22T07:02:22;9.03;;;8.23;;
25349;SDS011;13302;48.796;11.978;2024-03-22T07:05:08;8.97;;;8.07;;
25349;SDS011;13302;48.796;11.978;2024-03-22T07:07:54;9.47;;;8.00;;
25349;SDS011;13302;48.796;11.978;2024-03-22T07:10:43;9.40;;;8.60;;
25349;SDS011;13302;48.796;11.978;2024-03-22T07:13:31;11.37;;;10.27;;
25349;SDS011;13302;48.796;11.978;2024-03-22T07:16:18;12.17;;;10.97;;
25349;SDS011;13302;48.796;11.978;2024-03-22T07:19:04;12.07;;;10.83;;
25349;SDS011;13302;48.796;11.978;2024-03-22T07:21:51;11.97;;;10.77;;
25349;SDS011;13302;48.796;11.978;2024-03-22T07:24:37;11.70;;;10.50;;
25349;SDS011;13302;48.796;11.978;2024-03-22T07:27:23;12.37;;;11.17;;
25349;SDS011;13302;48.796;11.978;2024-03-22T07:30:09;12.60;;;11.40;;
25349;SDS011;13302;48.796;11.978;2024-03-22T07:32:56;13.63;;;12.30;;
25349;SDS011;13302;48.796;11.978;2024-03-22T07:35:42;11.93;;;10.43;;
25349;SDS011;13302;48.796;11.978;2024-03-22T07:38:29;12.83;;;11.50;;
25349;SDS011;13302;48.796;11.978;2024-03-22T07:41:15;11.63;;;10.53;;
25349;SDS011;13302;48.796;11.978;2024-03-22T07:44:01;12.63;;;11.40;;
25349;SDS011;13302;48.796;11.978;2024-03-22T07:46:47;12.43;;;11.23;;
25349;SDS011;13302;48.796;11.978;2024-03-22T07:49:33;12.53;;;11.23;;
25349;SDS011;13302;48.796;11.978;2024-03-22T07:52:19;12.03;;;10.83;;
25349;SDS011;13302;48.796;11.978;2024-03-22T07:55:06;14.03;;;12.27;;
25349;SDS011;13302;48.796;11.978;2024-03-22T07:57:52;13.30;;;12.00;;
25349;SDS011;13302;48.796;11.978;2024-03-22T08:00:38;13.23;;;11.93;;
25349;SDS011;13302;48.796;11.978;2024-03-22T08:03:24;12.47;;;11.17;;
25349;SDS011;13302;48.796;11.978;2024-03-22T08:06:10;12.87;;;11.67;;
25349;SDS011;13302;48.796;11.978;2024-03-22T08:08:56;15.07;;;13.47;;
25349;SDS011;13302;48.796;11.978;2024-03-22T08:11:42;13.53;;;12.23;;
25349;SDS011;13302;48.796;11.978;2024-03-22T08:14:28;13.40;;;12.07;;
25349;SDS011;13302;48.796;11.978;2024-03-22T08:17:14;14.10;;;12.60;;
25349;SDS011;13302;48.796;11.978;2024-03-22T08:20:00;13.27;;;11.97;;
25349;SDS011;13302;48.796;11.978;2024-03-22T08:22:47;13.87;;;12.53;;
25349;SDS011;13302;48.796;11.978;2024-03-22T08:25:33;13.73;;;12.43;;
25349;SDS011;13302;48.796;11.978;2024-03-22T08:28:19;13.77;;;12.47;;
25349;SDS011;13302;48.796;11.978;2024-03-22T08:31:05;12.43;;;11.23;;
25349;SDS011;13302;48.796;11.978;2024-03-22T08:33:51;12.97;;;11.63;;
25349;SDS011;13302;48.796;11.978;2024-03-22T08:36:38;13.23;;;11.87;;
25349;SDS011;13302;48.796;11.978;2024-03-22T08:39:24;13.97;;;12.60;;
25349;SDS011;13302;48.796;11.978;2024-03-22T08:42:10;13.17;;;11.87;;
25349;SDS011;13302;48.796;11.978;2024-03-22T08:44:56;12.60;;;11.43;;
25349;SDS011;13302;48.796;11.978;2024-03-22T08:47:43;12.60;;;11.47;;
25349;SDS011;13302;48.796;11.978;2024-03-22T08:50:31;13.90;;;12.47;;
25349;SDS011;13302;48.796;11.978;2024-03-22T08:53:17;13.07;;;11.67;;
25349;SDS011;13302;48.796;11.978;2024-03-22T08:56:03;14.03;;;12.60;;
25349;SDS011;13302;48.796;11.978;2024-03-22T08:58:50;12.33;;;11.07;;
25349;SDS011;13302;48.796;11.978;2024-03-22T09:01:36;12.17;;;10.93;;
25349;SDS011;13302;48.796;11.978;2024-03-22T09:04:22;13.10;;;11.73;;
25349;SDS011;13302;48.796;11.978;2024-03-22T09:07:08;13.10;;;11.57;;
25349;SDS011;13302;48.796;11.978;2024-03-22T09:09:54;13.03;;;11.63;;
25349;SDS011;13302;48.796;11.978;2024-03-22T09:12:40;13.60;;;12.20;;
25349;SDS011;13302;48.796;11.978;2024-03-22T09:15:27;13.93;;;12.53;;
25349;SDS011;13302;48.796;11.978;2024-03-22T09:18:13;12.67;;;11.47;;
25349;SDS011;13302;48.796;11.978;2024-03-22T09:20:59;12.33;;;11.23;;
25349;SDS011;13302;48.796;11.978;2024-03-22T09:23:45;12.50;;;11.30;;
25349;SDS011;13302;48.796;11.978;2024-03-22T09:26:32;12.83;;;11.63;;
25349;SDS011;13302;48.796;11.978;2024-03-22T09:29:18;12.67;;;11.43;;
25349;SDS011;13302;48.796;11.978;2024-03-22T09:32:04;11.77;;;10.57;;
25349;SDS011;13302;48.796;11.978;2024-03-22T09:34:50;12.87;;;11.57;;
25349;SDS011;13302;48.796;11.978;2024-03-22T09:37:36;11.97;;;10.77;;
25349;SDS011;13302;48.796;11.978;2024-03-22T09:40:22;12.50;;;10.93;;
25349;SDS011;13302;48.796;11.978;2024-03-22T09:43:10;11.80;;;10.60;;
25349;SDS011;13302;48.796;11.978;2024-03-22T09:45:59;12.73;;;11.43;;
25349;SDS011;13302;48.796;11.978;2024-03-22T09:48:49;11.60;;;10.50;;
25349;SDS011;13302;48.796;11.978;2024-03-22T09:51:37;13.23;;;11.83;;
25349;SDS011;13302;48.796;11.978;2024-03-22T09:54:23;12.07;;;10.60;;
25349;SDS011;13302;48.796;11.978;2024-03-22T09:57:14;11.47;;;10.27;;
25349;SDS011;13302;48.796;11.978;2024-03-22T10:00:07;11.90;;;10.80;;
25349;SDS011;13302;48.796;11.978;2024-03-22T10:02:58;11.13;;;10.13;;
25349;SDS011;13302;48.796;11.978;2024-03-22T10:05:46;12.50;;;11.40;;
25349;SDS011;13302;48.796;11.978;2024-03-22T10:08:33;11.30;;;10.30;;
25349;SDS011;13302;48.796;11.978;2024-03-22T10:11:19;12.00;;;10.80;;
25349;SDS011;13302;48.796;11.978;2024-03-22T10:14:05;11.97;;;10.77;;
25349;SDS011;13302;48.796;11.978;2024-03-22T10:16:51;11.13;;;10.13;;
25349;SDS011;13302;48.796;11.978;2024-03-22T10:19:40;11.47;;;10.37;;
25349;SDS011;13302;48.796;11.978;2024-03-22T10:22:26;10.87;;;9.77;;
25349;SDS011;13302;48.796;11.978;2024-03-22T10:25:13;11.43;;;10.30;;
25349;SDS011;13302;48.796;11.978;2024-03-22T10:27:59;10.60;;;9.60;;
25349;SDS011;13302;48.796;11.978;2024-03-22T10:30:45;10.93;;;9.10;;
25349;SDS011;13302;48.796;11.978;2024-03-22T10:33:34;10.27;;;9.30;;
25349;SDS011;13302;48.796;11.978;2024-03-22T10:36:21;10.30;;;9.40;;
25349;SDS011;13302;48.796;11.978;2024-03-22T10:39:07;10.47;;;9.50;;
25349;SDS011;13302;48.796;11.978;2024-03-22T10:41:54;11.07;;;9.93;;
25349;SDS011;13302;48.796;11.978;2024-03-22T10:44:40;10.07;;;9.17;;
25349;SDS011;13302;48.796;11.978;2024-03-22T10:47:27;9.70;;;8.80;;
25349;SDS011;13302;48.796;11.978;2024-03-22T10:50:16;10.33;;;9.43;;
25349;SDS011;13302;48.796;11.978;2024-03-22T10:53:06;10.60;;;9.60;;
25349;SDS011;13302;48.796;11.978;2024-03-22T10:55:55;10.63;;;9.60;;
25349;SDS011;13302;48.796;11.978;2024-03-22T10:58:45;10.73;;;9.73;;
25349;SDS011;13302;48.796;11.978;2024-03-22T11:01:33;11.07;;;10.10;;
25349;SDS011;13302;48.796;11.978;2024-03-22T11:04:23;9.10;;;8.30;;
25349;SDS011;13302;48.796;11.978;2024-03-22T11:07:22;10.80;;;9.37;;
25349;SDS011;13302;48.796;11.978;2024-03-22T11:10:11;9.53;;;8.63;;
25349;SDS011;13302;48.796;11.978;2024-03-22T11:13:01;8.93;;;8.13;;
25349;SDS011;13302;48.796;11.978;2024-03-22T11:15:51;9.03;;;8.13;;
25349;SDS011;13302;48.796;11.978;2024-03-22T11:18:38;8.40;;;7.70;;
25349;SDS011;13302;48.796;11.978;2024-03-22T11:21:24;8.43;;;7.50;;
25349;SDS011;13302;48.796;11.978;2024-03-22T11:24:10;8.17;;;7.37;;
25349;SDS011;13302;48.796;11.978;2024-03-22T11:26:57;8.20;;;7.40;;
25349;SDS011;13302;48.796;11.978;2024-03-22T11:29:44;8.07;;;7.27;;
25349;SDS011;13302;48.796;11.978;2024-03-22T11:32:34;8.07;;;7.27;;
25349;SDS011;13302;48.796;11.978;2024-03-22T11:35:28;8.03;;;6.10;;
25349;SDS011;13302;48.796;11.978;2024-03-22T11:38:14;6.40;;;5.80;;
25349;SDS011;13302;48.796;11.978;2024-03-22T11:41:01;6.33;;;5.73;;
25349;SDS011;13302;48.796;11.978;2024-03-22T11:43:49;5.70;;;5.27;;
25349;SDS011;13302;48.796;11.978;2024-03-22T11:46:36;5.73;;;5.23;;
25349;SDS011;13302;48.796;11.978;2024-03-22T11:49:23;5.47;;;5.07;;
25349;SDS011;13302;48.796;11.978;2024-03-22T11:52:10;5.77;;;5.23;;
25349;SDS011;13302;48.796;11.978;2024-03-22T11:54:56;5.30;;;4.90;;
25349;SDS011;13302;48.796;11.978;2024-03-22T11:57:47;5.23;;;4.73;;
25349;SDS011;13302;48.796;11.978;2024-03-22T12:00:34;5.73;;;5.23;;
25349;SDS011;13302;48.796;11.978;2024-03-22T12:03:20;5.83;;;5.33;;
25349;SDS011;13302;48.796;11.978;2024-03-22T12:06:06;5.20;;;4.80;;
25349;SDS011;13302;48.796;11.978;2024-03-22T12:08:55;5.07;;;4.67;;
25349;SDS011;13302;48.796;11.978;2024-03-22T12:11:41;5.87;;;5.37;;
25349;SDS011;13302;48.796;11.978;2024-03-22T12:14:27;5.20;;;4.80;;
25349;SDS011;13302;48.796;11.978;2024-03-22T12:17:13;4.90;;;4.50;;
25349;SDS011;13302;48.796;11.978;2024-03-22T12:19:59;5.53;;;5.03;;
25349;SDS011;13302;48.796;11.978;2024-03-22T12:22:45;3.73;;;3.53;;
25349;SDS011;13302;48.796;11.978;2024-03-22T12:25:31;5.00;;;4.50;;
25349;SDS011;13302;48.796;11.978;2024-03-22T12:28:18;5.23;;;4.73;;
25349;SDS011;13302;48.796;11.978;2024-03-22T12:31:04;5.47;;;4.73;;
25349;SDS011;13302;48.796;11.978;2024-03-22T12:33:50;5.77;;;4.50;;
25349;SDS011;13302;48.796;11.978;2024-03-22T12:36:37;4.50;;;4.20;;
25349;SDS011;13302;48.796;11.978;2024-03-22T12:39:23;4.57;;;4.17;;
25349;SDS011;13302;48.796;11.978;2024-03-22T12:42:09;5.90;;;4.23;;
25349;SDS011;13302;48.796;11.978;2024-03-22T12:44:55;4.97;;;4.67;;
25349;SDS011;13302;48.796;11.978;2024-03-22T12:47:41;3.97;;;3.67;;
25349;SDS011;13302;48.796;11.978;2024-03-22T12:50:27;4.50;;;4.10;;
25349;SDS011;13302;48.796;11.978;2024-03-22T12:53:13;4.43;;;4.10;;
25349;SDS011;13302;48.796;11.978;2024-03-22T12:55:59;5.13;;;4.77;;
25349;SDS011;13302;48.796;11.978;2024-03-22T12:58:46;4.97;;;4.50;;
25349;SDS011;13302;48.796;11.978;2024-03-22T13:01:33;4.90;;;4.50;;
25349;SDS011;13302;48.796;11.978;2024-03-22T13:04:19;5.40;;;5.00;;
25349;SDS011;13302;48.796;11.978;2024-03-22T13:07:05;3.60;;;3.40;;
25349;SDS011;13302;48.796;11.978;2024-03-22T13:09:52;4.23;;;3.83;;
25349;SDS011;13302;48.796;11.978;2024-03-22T13:12:38;4.80;;;4.40;;
25349;SDS011;13302;48.796;11.978;2024-03-22T13:15:24;4.73;;;4.30;;
25349;SDS011;13302;48.796;11.978;2024-03-22T13:18:11;4.70;;;4.40;;
25349;SDS011;13302;48.796;11.978;2024-03-22T13:20:57;5.20;;;4.70;;
25349;SDS011;13302;48.796;11.978;2024-03-22T13:23:43;4.13;;;3.93;;
25349;SDS011;13302;48.796;11.978;2024-03-22T13:26:29;4.47;;;4.07;;
25349;SDS011;13302;48.796;11.978;2024-03-22T13:29:15;4.90;;;4.50;;
25349;SDS011;13302;48.796;11.978;2024-03-22T13:32:01;4.77;;;4.37;;
25349;SDS011;13302;48.796;11.978;2024-03-22T13:34:48;3.60;;;3.30;;
25349;SDS011;13302;48.796;11.978;2024-03-22T13:37:36;4.33;;;4.03;;
25349;SDS011;13302;48.796;11.978;2024-03-22T13:40:22;4.87;;;4.10;;
25349;SDS011;13302;48.796;11.978;2024-03-22T13:43:08;4.60;;;4.23;;
25349;SDS011;13302;48.796;11.978;2024-03-22T13:45:54;4.83;;;4.43;;
25349;SDS011;13302;48.796;11.978;2024-03-22T13:48:40;4.93;;;4.53;;
25349;SDS011;13302;48.796;11.978;2024-03-22T13:51:26;5.60;;;4.80;;
25349;SDS011;13302;48.796;11.978;2024-03-22T13:54:14;4.40;;;4.10;;
25349;SDS011;13302;48.796;11.978;2024-03-22T13:57:00;4.73;;;4.43;;
25349;SDS011;13302;48.796;11.978;2024-03-22T13:59:46;6.43;;;4.73;;
25349;SDS011;13302;48.796;11.978;2024-03-22T14:02:32;5.10;;;4.60;;
25349;SDS011;13302;48.796;11.978;2024-03-22T14:05:18;5.57;;;5.07;;
25349;SDS011;13302;48.796;11.978;2024-03-22T14:08:05;5.13;;;4.73;;
25349;SDS011;13302;48.796;11.978;2024-03-22T14:10:51;5.27;;;4.87;;
25349;SDS011;13302;48.796;11.978;2024-03-22T14:13:37;5.00;;;4.60;;
25349;SDS011;13302;48.796;11.978;2024-03-22T14:16:23;6.23;;;5.00;;
25349;SDS011;13302;48.796;11.978;2024-03-22T14:19:10;4.70;;;4.30;;
25349;SDS011;13302;48.796;11.978;2024-03-22T14:21:56;5.00;;;4.60;;
25349;SDS011;13302;48.796;11.978;2024-03-22T14:24:42;4.60;;;4.20;;
25349;SDS011;13302;48.796;11.978;2024-03-22T14:27:28;4.80;;;4.40;;
25349;SDS011;13302;48.796;11.978;2024-03-22T14:30:14;4.70;;;3.70;;
25349;SDS011;13302;48.796;11.978;2024-03-22T14:33:01;4.13;;;3.83;;
25349;SDS011;13302;48.796;11.978;2024-03-22T14:35:47;4.17;;;3.97;;
25349;SDS011;13302;48.796;11.978;2024-03-22T14:38:35;4.50;;;4.10;;
25349;SDS011;13302;48.796;11.978;2024-03-22T14:41:22;5.00;;;4.50;;
25349;SDS011;13302;48.796;11.978;2024-03-22T14:44:08;4.67;;;4.27;;
25349;SDS011;13302;48.796;11.978;2024-03-22T14:46:54;4.57;;;4.27;;
25349;SDS011;13302;48.796;11.978;2024-03-22T14:49:40;5.00;;;4.60;;
25349;SDS011;13302;48.796;11.978;2024-03-22T14:52:27;4.90;;;3.93;;
25349;SDS011;13302;48.796;11.978;2024-03-22T14:55:13;4.20;;;3.90;;
25349;SDS011;13302;48.796;11.978;2024-03-22T14:57:59;4.27;;;3.73;;
25349;SDS011;13302;48.796;11.978;2024-03-22T15:00:54;4.53;;;3.90;;
25349;SDS011;13302;48.796;11.978;2024-03-22T15:03:41;4.23;;;3.83;;
25349;SDS011;13302;48.796;11.978;2024-03-22T15:06:27;3.93;;;3.70;;
25349;SDS011;13302;48.796;11.978;2024-03-22T15:09:14;4.43;;;4.03;;
25349;SDS011;13302;48.796;11.978;2024-03-22T15:12:00;3.90;;;3.60;;
25349;SDS011;13302;48.796;11.978;2024-03-22T15:14:46;4.23;;;3.93;;
25349;SDS011;13302;48.796;11.978;2024-03-22T15:17:32;4.00;;;3.70;;
25349;SDS011;13302;48.796;11.978;2024-03-22T15:20:18;4.03;;;3.73;;
25349;SDS011;13302;48.796;11.978;2024-03-22T15:23:04;4.27;;;3.90;;
25349;SDS011;13302;48.796;11.978;2024-03-22T15:25:50;4.03;;;3.73;;
25349;SDS011;13302;48.796;11.978;2024-03-22T15:28:37;4.27;;;3.87;;
25349;SDS011;13302;48.796;11.978;2024-03-22T15:31:23;5.43;;;3.87;;
25349;SDS011;13302;48.796;11.978;2024-03-22T15:34:09;4.57;;;4.27;;
25349;SDS011;13302;48.796;11.978;2024-03-22T15:36:55;4.00;;;3.70;;
25349;SDS011;13302;48.796;11.978;2024-03-22T15:39:42;4.30;;;3.93;;
25349;SDS011;13302;48.796;11.978;2024-03-22T15:42:28;3.83;;;3.53;;
25349;SDS011;13302;48.796;11.978;2024-03-22T15:45:14;3.37;;;3.07;;
25349;SDS011;13302;48.796;11.978;2024-03-22T15:48:01;3.93;;;3.67;;
25349;SDS011;13302;48.796;11.978;2024-03-22T15:50:47;4.60;;;4.20;;
25349;SDS011;13302;48.796;11.978;2024-03-22T15:53:33;3.57;;;3.37;;
25349;SDS011;13302;48.796;11.978;2024-03-22T15:56:19;3.53;;;3.33;;
25349;SDS011;13302;48.796;11.978;2024-03-22T15:59:05;3.87;;;3.57;;
25349;SDS011;13302;48.796;11.978;2024-03-22T16:01:52;3.60;;;3.33;;
25349;SDS011;13302;48.796;11.978;2024-03-22T16:04:38;4.67;;;4.17;;
25349;SDS011;13302;48.796;11.978;2024-03-22T16:07:25;4.97;;;4.57;;
25349;SDS011;13302;48.796;11.978;2024-03-22T16:10:14;6.50;;;4.23;;
25349;SDS011;13302;48.796;11.978;2024-03-22T16:13:01;4.17;;;3.83;;
25349;SDS011;13302;48.796;11.978;2024-03-22T16:15:47;3.97;;;3.67;;
25349;SDS011;13302;48.796;11.978;2024-03-22T16:18:33;4.23;;;3.93;;
25349;SDS011;13302;48.796;11.978;2024-03-22T16:21:19;4.50;;;4.10;;